Time;durP1;ratioP1;P1;durP2;ratioP2;P2;SDS_P1;SDS_P2;PMS_P1;PMS_P2;Temp;Humidity;BMP_temperature;BMP_pressure;BME280_temperature;BME280_humidity;BME280_pressure;Samples;Min_cycle;Max_cycle;Signal;HPM_P1;HPM_P2
2021/11/05 00:01:00;;;;;;;14.43;13.02;;;20.50;99.90;;;;;;5072427;28;20070;-79
2021/11/05 00:03:28;;;;;;;13.63;12.43;;;20.50;99.90;;;;;;5074240;28;20032;-78
2021/11/05 00:05:56;;;;;;;14.20;13.00;;;20.40;99.90;;;;;;5073775;28;20103;-79
2021/11/05 00:08:25;;;;;;;14.00;12.80;;;20.50;99.90;;;;;;5072834;28;20056;-79
2021/11/05 00:10:53;;;;;;;14.93;13.52;;;20.60;99.90;;;;;;5072667;28;20052;-81
2021/11/05 00:13:20;;;;;;;14.60;13.35;;;20.80;99.90;;;;;;5073778;28;20031;-79
2021/11/05 00:15:48;;;;;;;13.60;12.63;;;21.00;99.90;;;;;;5074217;28;20020;-77
2021/11/05 00:18:15;;;;;;;14.63;13.52;;;21.00;99.90;;;;;;5073686;28;20045;-77
2021/11/05 00:20:42;;;;;;;12.65;11.85;;;21.20;99.90;;;;;;5073826;28;20078;-78
2021/11/05 00:23:13;;;;;;;12.02;11.15;;;21.30;99.90;;;;;;5073292;28;20082;-81
2021/11/05 00:25:40;;;;;;;12.85;11.88;;;21.40;99.90;;;;;;5073891;28;20048;-79
2021/11/05 00:28:07;;;;;;;12.68;11.50;;;21.50;99.90;;;;;;5073787;28;20020;-77
2021/11/05 00:30:35;;;;;;;12.10;10.85;;;21.40;99.90;;;;;;5073651;28;20056;-80
2021/11/05 00:33:03;;;;;;;10.43;9.50;;;21.20;99.90;;;;;;5072358;28;20060;-79
2021/11/05 00:35:30;;;;;;;11.20;9.70;;;21.10;99.90;;;;;;5073905;28;20389;-79
2021/11/05 00:37:58;;;;;;;10.32;9.50;;;21.10;99.90;;;;;;5072085;28;20103;-79
2021/11/05 00:40:28;;;;;;;9.70;8.93;;;21.10;99.90;;;;;;5072157;28;20023;-81
2021/11/05 00:42:55;;;;;;;;;;;21.00;99.90;;;;;;5073032;28;20021;-80
2021/11/05 00:45:23;;;;;;;10.88;9.77;;;21.00;99.90;;;;;;5072369;28;19954;-80
2021/11/05 00:47:50;;;;;;;11.63;10.52;;;21.00;99.90;;;;;;5074035;28;20031;-80
2021/11/05 00:50:18;;;;;;;11.20;10.13;;;20.90;99.90;;;;;;5073829;28;20028;-78
2021/11/05 00:52:45;;;;;;;11.60;10.48;;;21.00;99.90;;;;;;5073102;28;20021;-80
2021/11/05 00:55:12;;;;;;;11.98;10.25;;;21.10;99.90;;;;;;5071833;28;20062;-79
2021/11/05 00:57:40;;;;;;;12.25;11.20;;;21.10;99.90;;;;;;5073441;28;20024;-80
2021/11/05 01:00:14;;;;;;;12.20;11.25;;;21.10;99.90;;;;;;5073206;28;20104;-82
2021/11/05 01:02:42;;;;;;;12.23;11.15;;;21.30;99.90;;;;;;5072256;28;20066;-82
2021/11/05 01:05:11;;;;;;;11.82;10.77;;;21.60;99.90;;;;;;5071974;28;20052;-79
2021/11/05 01:07:39;;;;;;;12.07;10.75;;;21.70;99.90;;;;;;5073085;28;20397;-79
2021/11/05 01:10:08;;;;;;;11.20;10.20;;;21.80;99.90;;;;;;5073596;28;20021;-79
2021/11/05 01:12:35;;;;;;;10.80;9.77;;;21.90;99.90;;;;;;5073656;28;20099;-81
2021/11/05 01:15:04;;;;;;;9.85;8.90;;;22.20;99.90;;;;;;5071639;28;20393;-80
2021/11/05 01:17:31;;;;;;;9.10;8.57;;;22.50;99.90;;;;;;5072705;28;20052;-81
2021/11/05 01:19:58;;;;;;;9.75;8.80;;;22.50;99.90;;;;;;5071917;28;20021;-80
2021/11/05 01:22:26;;;;;;;9.10;8.35;;;22.60;99.90;;;;;;5072026;28;20036;-81
2021/11/05 01:24:53;;;;;;;9.00;8.20;;;22.90;99.90;;;;;;5071693;28;20040;-81
2021/11/05 01:27:20;;;;;;;8.75;7.95;;;23.20;99.90;;;;;;5073271;28;20013;-83
2021/11/05 01:29:48;;;;;;;8.95;8.23;;;23.70;99.90;;;;;;5073270;28;20394;-81
2021/11/05 01:32:15;;;;;;;7.82;7.13;;;23.80;99.90;;;;;;5071735;28;20604;-81
2021/11/05 01:34:43;;;;;;;11.00;8.07;;;23.80;99.90;;;;;;5072288;28;20029;-82
2021/11/05 01:37:10;;;;;;;12.23;7.55;;;24.10;99.90;;;;;;5076740;28;20082;-82
2021/11/05 01:39:37;;;;;;;8.65;7.70;;;24.40;99.90;;;;;;5076907;28;20028;-81
2021/11/05 01:42:05;;;;;;;9.52;8.13;;;24.50;99.90;;;;;;5076442;28;20016;-81
2021/11/05 01:44:34;;;;;;;11.68;7.78;;;24.30;99.90;;;;;;5074974;28;20512;-82
2021/11/05 01:47:01;;;;;;;8.98;7.10;;;23.80;99.90;;;;;;5075007;28;20032;-80
2021/11/05 01:49:29;;;;;;;7.10;6.40;;;23.80;99.90;;;;;;5076406;28;20028;-82
2021/11/05 01:51:57;;;;;;;9.40;7.55;;;23.70;99.90;;;;;;5076257;28;20515;-84
2021/11/05 01:54:25;;;;;;;9.23;6.50;;;23.70;99.90;;;;;;5075387;28;20039;-82
2021/11/05 01:56:53;;;;;;;6.82;6.22;;;23.50;99.90;;;;;;5076489;28;20028;-83
2021/11/05 01:59:22;;;;;;;8.02;5.80;;;23.70;99.90;;;;;;5075117;28;20111;-83
2021/11/05 02:01:50;;;;;;;8.95;6.90;;;23.70;99.90;;;;;;5076469;28;20083;-80
2021/11/05 02:04:17;;;;;;;7.90;7.10;;;23.50;99.90;;;;;;5076453;28;20436;-81
2021/11/05 02:06:46;;;;;;;12.18;6.72;;;23.40;99.90;;;;;;5076851;28;20039;-82
2021/11/05 02:09:16;;;;;;;8.30;6.40;;;23.20;99.90;;;;;;5076266;28;20021;-80
2021/11/05 02:11:45;;;;;;;6.95;6.38;;;23.10;99.90;;;;;;5075322;28;20033;-80
2021/11/05 02:14:18;;;;;;;7.72;6.55;;;23.20;99.90;;;;;;5076685;28;20039;-81
2021/11/05 02:16:48;;;;;;;7.40;6.63;;;23.00;99.90;;;;;;5076450;28;20014;-83
2021/11/05 02:19:18;;;;;;;7.05;6.40;;;23.20;99.90;;;;;;5075074;28;20043;-83
2021/11/05 02:21:48;;;;;;;9.25;6.93;;;22.90;99.90;;;;;;5075030;28;20029;-81
2021/11/05 02:24:16;;;;;;;9.03;7.23;;;22.70;99.90;;;;;;5074750;28;20389;-83
2021/11/05 02:26:45;;;;;;;9.70;7.28;;;22.60;99.90;;;;;;5074805;28;20028;-83
2021/11/05 02:29:13;;;;;;;8.35;7.38;;;22.80;99.90;;;;;;5074706;28;20024;-81
2021/11/05 02:31:41;;;;;;;10.40;7.55;;;23.00;99.90;;;;;;5074470;28;20078;-84
2021/11/05 02:34:09;;;;;;;9.18;6.55;;;23.00;99.90;;;;;;5075456;28;20089;-83
2021/11/05 02:36:37;;;;;;;7.65;6.90;;;22.90;99.90;;;;;;5073827;28;20027;-83
2021/11/05 02:39:09;;;;;;;10.38;7.90;;;22.80;99.90;;;;;;5075495;28;20016;-82
2021/11/05 02:41:45;;;;;;;9.05;8.00;;;22.80;99.90;;;;;;5075372;28;20063;-83
2021/11/05 02:44:12;;;;;;;8.07;7.10;;;22.90;99.90;;;;;;5075364;28;20021;-82
2021/11/05 02:46:40;;;;;;;11.82;8.25;;;22.70;99.90;;;;;;5073867;28;20108;-83
2021/11/05 02:49:09;;;;;;;8.07;6.53;;;22.70;99.90;;;;;;5075296;28;20024;-83
2021/11/05 02:51:38;;;;;;;8.40;7.45;;;22.50;99.90;;;;;;5075156;28;20028;-83
2021/11/05 02:54:07;;;;;;;6.72;5.97;;;22.70;99.90;;;;;;5074167;28;20036;-83
2021/11/05 02:56:34;;;;;;;8.18;5.90;;;22.70;99.90;;;;;;5057519;28;20025;-82
2021/11/05 02:59:02;;;;;;;10.80;6.95;;;22.60;99.90;;;;;;5073921;28;20499;-80
2021/11/05 03:01:30;;;;;;;6.80;6.18;;;22.70;99.90;;;;;;5074007;28;20025;-83
2021/11/05 03:04:07;;;;;;;7.10;6.32;;;22.80;99.90;;;;;;5073461;28;20035;-83
2021/11/05 03:06:41;;;;;;;9.38;6.38;;;22.80;99.90;;;;;;5073631;28;20056;-84
2021/11/05 03:09:10;;;;;;;7.32;5.60;;;22.90;99.90;;;;;;5073922;28;20106;-82
2021/11/05 03:11:38;;;;;;;7.68;6.72;;;22.90;99.90;;;;;;5074956;28;20103;-82
2021/11/05 03:14:09;;;;;;;8.93;6.65;;;23.00;99.90;;;;;;5074681;28;20028;-83
2021/11/05 03:16:39;;;;;;;7.38;6.32;;;23.10;99.90;;;;;;5074927;28;20080;-82
2021/11/05 03:19:08;;;;;;;7.13;5.68;;;23.30;99.90;;;;;;5073462;28;20095;-83
2021/11/05 03:21:37;;;;;;;8.48;5.50;;;23.40;99.90;;;;;;5074449;28;20021;-82
2021/11/05 03:24:05;;;;;;;7.18;5.82;;;23.50;99.90;;;;;;5073193;28;20115;-82
2021/11/05 03:26:33;;;;;;;7.18;5.13;;;23.60;99.90;;;;;;5074703;28;20040;-82
2021/11/05 03:29:01;;;;;;;5.65;5.03;;;23.70;99.90;;;;;;5074629;28;20027;-83
2021/11/05 03:31:28;;;;;;;13.40;6.80;;;23.50;99.90;;;;;;5074324;28;20086;-80
2021/11/05 03:33:55;;;;;;;5.47;4.45;;;23.50;99.90;;;;;;5074305;28;20024;-83
2021/11/05 03:36:24;;;;;;;5.43;4.50;;;23.60;99.90;;;;;;5072980;28;20016;-82
2021/11/05 03:38:52;;;;;;;5.30;4.80;;;23.70;99.90;;;;;;5074169;28;20012;-83
2021/11/05 03:41:20;;;;;;;6.45;4.82;;;23.80;99.90;;;;;;5073795;28;20111;-84
2021/11/05 03:43:48;;;;;;;5.85;4.70;;;23.50;99.90;;;;;;5073065;28;20059;-82
2021/11/05 03:46:16;;;;;;;8.07;4.47;;;23.50;99.90;;;;;;5072784;28;20064;-83
2021/11/05 03:48:43;;;;;;;6.85;4.95;;;23.90;99.90;;;;;;5074189;28;20028;-83
2021/11/05 03:51:11;;;;;;;7.45;4.82;;;24.20;99.90;;;;;;5072656;28;20036;-82
2021/11/05 03:53:39;;;;;;;6.80;4.80;;;23.70;99.90;;;;;;5073749;28;20020;-83
2021/11/05 03:56:07;;;;;;;7.40;4.63;;;23.70;99.90;;;;;;5074246;28;20021;-84
2021/11/05 03:58:36;;;;;;;6.22;5.35;;;23.80;99.90;;;;;;5055644;28;20052;-83
2021/11/05 04:01:05;;;;;;;7.60;5.20;;;23.80;99.90;;;;;;5072562;28;20027;-82
2021/11/05 04:03:33;;;;;;;6.40;5.80;;;23.30;99.90;;;;;;5072567;28;20024;-82
2021/11/05 04:06:00;;;;;;;6.90;5.20;;;23.40;99.90;;;;;;5072819;28;20073;-81
2021/11/05 04:08:27;;;;;;;7.70;5.60;;;23.20;99.90;;;;;;5072441;28;20028;-82
2021/11/05 04:10:57;;;;;;;7.45;5.80;;;23.30;99.90;;;;;;5073715;28;20016;-84
2021/11/05 04:13:24;;;;;;;9.30;6.10;;;23.40;99.90;;;;;;5072237;28;20489;-83
2021/11/05 04:15:51;;;;;;;8.15;5.90;;;23.70;99.90;;;;;;5072378;28;20032;-80
2021/11/05 04:18:19;;;;;;;9.45;5.70;;;23.70;99.90;;;;;;5072758;28;20045;-83
2021/11/05 04:20:47;;;;;;;6.20;5.57;;;24.00;99.90;;;;;;5073362;28;20035;-85
2021/11/05 04:23:17;;;;;;;7.50;5.65;;;24.70;99.90;;;;;;5074052;28;20478;-82
2021/11/05 04:25:45;;;;;;;7.15;5.32;;;24.90;99.90;;;;;;5072891;28;20032;-85
2021/11/05 04:28:13;;;;;;;9.15;4.68;;;25.00;99.90;;;;;;5074029;28;20043;-83
2021/11/05 04:30:41;;;;;;;5.60;5.00;;;24.70;99.90;;;;;;5073066;28;20029;-83
2021/11/05 04:33:10;;;;;;;8.38;4.70;;;24.50;99.90;;;;;;5072920;28;20485;-82
2021/11/05 04:35:38;;;;;;;8.57;4.38;;;24.40;99.90;;;;;;5056062;28;20083;-84
2021/11/05 04:38:06;;;;;;;7.70;4.40;;;24.00;99.90;;;;;;5072871;28;20028;-85
2021/11/05 04:40:36;;;;;;;7.85;4.63;;;24.00;99.90;;;;;;5074162;28;20021;-87
2021/11/05 04:43:03;;;;;;;6.53;4.80;;;24.00;99.90;;;;;;5074231;28;20031;-83
2021/11/05 04:45:31;;;;;;;6.65;4.10;;;24.20;99.90;;;;;;5073888;28;20052;-84
2021/11/05 04:47:58;;;;;;;8.27;4.55;;;24.20;99.90;;;;;;5073968;28;20086;-85
2021/11/05 04:50:25;;;;;;;6.40;4.40;;;24.60;99.90;;;;;;5073022;28;20029;-85
2021/11/05 04:52:53;;;;;;;6.45;4.13;;;24.70;99.90;;;;;;5073626;28;20021;-83
2021/11/05 04:55:22;;;;;;;8.30;4.72;;;24.50;99.90;;;;;;5073654;28;20100;-83
2021/11/05 04:57:50;;;;;;;6.88;4.72;;;24.60;99.90;;;;;;5073646;28;20101;-83
2021/11/05 05:00:21;;;;;;;11.20;5.80;;;24.40;99.90;;;;;;5072404;28;20021;-84
2021/11/05 05:02:47;;;;;;;;;;;24.20;99.90;;;;;;5073069;28;20033;-83
2021/11/05 05:05:16;;;;;;;6.55;5.05;;;23.70;99.90;;;;;;5074449;28;20274;-82
2021/11/05 05:07:44;;;;;;;7.35;4.50;;;23.40;99.90;;;;;;5074119;28;20021;-84
2021/11/05 05:10:12;;;;;;;6.45;4.68;;;23.00;99.90;;;;;;5077495;28;20021;-84
2021/11/05 05:12:40;;;;;;;8.48;4.47;;;22.80;99.90;;;;;;5076867;28;20024;-83
2021/11/05 05:15:10;;;;;;;6.70;4.57;;;22.80;99.90;;;;;;5077810;28;20414;-86
2021/11/05 05:17:38;;;;;;;11.48;5.10;;;22.90;99.90;;;;;;5059394;28;20151;-86
2021/11/05 05:20:09;;;;;;;10.43;4.50;;;22.90;99.90;;;;;;5076683;28;20120;-84
2021/11/05 05:22:37;;;;;;;7.93;4.47;;;22.90;99.90;;;;;;5060020;28;20025;-83
2021/11/05 05:25:06;;;;;;;8.07;4.38;;;22.60;99.90;;;;;;5059775;28;20032;-82
2021/11/05 05:27:33;;;;;;;6.13;4.30;;;22.60;99.90;;;;;;5076697;28;20025;-82
2021/11/05 05:30:03;;;;;;;6.80;4.72;;;22.50;99.90;;;;;;5077943;28;20019;-84
2021/11/05 05:32:30;;;;;;;8.70;5.00;;;22.40;99.90;;;;;;5076722;28;20047;-84
2021/11/05 05:34:58;;;;;;;12.00;5.05;;;22.40;99.90;;;;;;5076728;28;20028;-83
2021/11/05 05:37:26;;;;;;;9.85;4.82;;;22.50;99.90;;;;;;5076148;28;20024;-84
2021/11/05 05:39:53;;;;;;;5.90;5.05;;;22.20;99.90;;;;;;5076223;28;20436;-80
2021/11/05 05:42:20;;;;;;;10.63;4.72;;;22.20;99.90;;;;;;5077293;28;20478;-83
2021/11/05 05:44:48;;;;;;;7.72;5.15;;;22.00;99.90;;;;;;5076664;28;20059;-87
2021/11/05 05:47:16;;;;;;;8.13;4.60;;;22.10;99.90;;;;;;5076107;28;20029;-84
2021/11/05 05:49:43;;;;;;;9.05;5.05;;;22.10;99.90;;;;;;5077864;28;20033;-83
2021/11/05 05:52:11;;;;;;;10.60;4.68;;;22.10;99.90;;;;;;5059698;28;20115;-84
2021/11/05 05:54:39;;;;;;;7.63;4.15;;;22.20;99.90;;;;;;5076560;28;20024;-83
2021/11/05 05:57:07;;;;;;;9.00;4.78;;;22.20;99.90;;;;;;5077490;28;20492;-84
2021/11/05 05:59:34;;;;;;;7.30;4.45;;;22.20;99.90;;;;;;5077665;28;20021;-83
2021/11/05 06:02:02;;;;;;;9.93;5.45;;;22.00;99.90;;;;;;5076736;28;20052;-85
2021/11/05 06:04:29;;;;;;;8.98;4.80;;;22.10;99.90;;;;;;5077411;28;20040;-84
2021/11/05 06:06:56;;;;;;;10.60;5.20;;;22.10;99.90;;;;;;5077920;28;20033;-82
2021/11/05 06:09:24;;;;;;;8.15;4.85;;;21.90;99.90;;;;;;5077595;28;20393;-85
2021/11/05 06:11:51;;;;;;;8.38;5.18;;;22.00;99.90;;;;;;5077376;28;20059;-83
2021/11/05 06:14:19;;;;;;;10.05;6.20;;;21.90;99.90;;;;;;5077158;28;20031;-83
2021/11/05 06:16:46;;;;;;;9.55;6.40;;;21.90;99.90;;;;;;5075733;28;20435;-84
2021/11/05 06:19:14;;;;;;;7.82;6.88;;;22.00;99.90;;;;;;5075644;28;20518;-84
2021/11/05 06:21:41;;;;;;;7.63;6.20;;;21.80;99.90;;;;;;5077139;28;20017;-81
2021/11/05 06:24:10;;;;;;;8.90;6.82;;;21.70;99.90;;;;;;5058946;28;20024;-81
2021/11/05 06:26:38;;;;;;;6.68;6.07;;;21.70;99.90;;;;;;5075912;28;20029;-82
2021/11/05 06:29:05;;;;;;;7.45;5.68;;;21.70;99.90;;;;;;5075559;28;20119;-82
2021/11/05 06:31:36;;;;;;;7.32;6.10;;;21.60;99.90;;;;;;5075717;28;20028;-83
2021/11/05 06:34:03;;;;;;;;;;;21.60;99.90;;;;;;5077141;28;20123;-82
2021/11/05 06:36:31;;;;;;;9.93;6.18;;;21.30;99.90;;;;;;5077170;28;19958;-83
2021/11/05 06:38:58;;;;;;;7.47;6.32;;;21.30;99.90;;;;;;5077490;28;20028;-83
2021/11/05 06:41:26;;;;;;;9.10;6.55;;;21.40;99.90;;;;;;5076699;28;20024;-84
2021/11/05 06:43:54;;;;;;;7.43;6.70;;;21.30;99.90;;;;;;5075250;28;20386;-84
2021/11/05 06:46:22;;;;;;;7.18;6.47;;;21.30;99.90;;;;;;5075335;28;20029;-84
2021/11/05 06:48:49;;;;;;;10.45;7.60;;;21.30;99.90;;;;;;5075601;28;20047;-81
2021/11/05 06:51:17;;;;;;;10.63;6.40;;;21.40;99.90;;;;;;5077510;28;20024;-82
2021/11/05 06:53:45;;;;;;;9.55;7.15;;;21.30;99.90;;;;;;5075327;28;20554;-84
2021/11/05 06:56:12;;;;;;;9.35;7.20;;;21.20;99.90;;;;;;5074856;28;20058;-86
2021/11/05 06:58:41;;;;;;;9.13;7.47;;;21.20;99.90;;;;;;5074980;28;20021;-85
2021/11/05 07:01:10;;;;;;;10.80;6.90;;;21.30;99.90;;;;;;5074801;28;20021;-81
2021/11/05 07:03:38;;;;;;;9.63;8.07;;;21.20;99.90;;;;;;5077474;28;20512;-84
2021/11/05 07:06:05;;;;;;;8.90;7.43;;;21.10;99.90;;;;;;5078366;28;20036;-84
2021/11/05 07:08:33;;;;;;;10.45;7.25;;;21.10;99.90;;;;;;5076425;28;20028;-83
2021/11/05 07:11:01;;;;;;;9.52;7.85;;;21.00;99.90;;;;;;5077568;28;20043;-84
2021/11/05 07:13:28;;;;;;;8.88;7.63;;;21.00;99.90;;;;;;5077265;28;20024;-84
2021/11/05 07:15:56;;;;;;;10.63;7.50;;;21.00;99.90;;;;;;5076789;28;20026;-82
2021/11/05 07:18:24;;;;;;;9.80;7.68;;;20.90;99.90;;;;;;5077134;28;20382;-85
2021/11/05 07:20:52;;;;;;;9.80;7.60;;;20.90;99.90;;;;;;5076534;28;20034;-81
2021/11/05 07:23:20;;;;;;;10.85;7.57;;;20.80;99.90;;;;;;5075702;28;20033;-80
2021/11/05 07:25:47;;;;;;;10.65;7.57;;;20.70;99.90;;;;;;5076568;28;20024;-81
2021/11/05 07:28:15;;;;;;;9.48;7.70;;;20.60;99.90;;;;;;5076102;28;20111;-81
2021/11/05 07:30:43;;;;;;;9.13;8.00;;;20.50;99.90;;;;;;5077118;28;20052;-84
2021/11/05 07:33:10;;;;;;;9.23;8.02;;;20.50;99.90;;;;;;5075626;28;20446;-83
2021/11/05 07:35:38;;;;;;;9.18;7.50;;;20.60;99.90;;;;;;5074654;28;20016;-84
2021/11/05 07:38:05;;;;;;;10.75;8.40;;;20.50;99.90;;;;;;5076210;28;20054;-85
2021/11/05 07:40:32;;;;;;;9.45;8.55;;;20.50;99.90;;;;;;5075231;28;20028;-83
2021/11/05 07:43:00;;;;;;;10.82;9.23;;;20.40;99.90;;;;;;5076707;28;20021;-83
2021/11/05 07:45:28;;;;;;;10.70;8.93;;;20.30;99.90;;;;;;5075899;28;20025;-83
2021/11/05 07:47:57;;;;;;;10.90;9.48;;;20.20;99.90;;;;;;5075931;28;20024;-84
2021/11/05 07:50:26;;;;;;;11.98;9.98;;;20.30;99.90;;;;;;5075847;28;20050;-83
2021/11/05 07:52:54;;;;;;;10.80;9.65;;;20.20;99.90;;;;;;5076291;28;20029;-81
2021/11/05 07:55:22;;;;;;;15.45;10.00;;;20.10;99.90;;;;;;5074436;28;20473;-83
2021/11/05 07:57:49;;;;;;;12.77;9.10;;;20.10;99.90;;;;;;5074690;28;20044;-84
2021/11/05 08:00:17;;;;;;;11.10;9.55;;;20.00;99.90;;;;;;5074380;28;20025;-82
2021/11/05 08:02:44;;;;;;;13.45;10.00;;;19.90;99.90;;;;;;5074993;28;20048;-84
2021/11/05 08:05:12;;;;;;;11.98;10.30;;;19.90;99.90;;;;;;5075263;28;20036;-82
2021/11/05 08:07:41;;;;;;;12.38;10.65;;;19.80;99.90;;;;;;5076874;28;20128;-82
2021/11/05 08:10:09;;;;;;;11.13;10.02;;;19.80;99.90;;;;;;5075098;28;20028;-83
2021/11/05 08:12:37;;;;;;;12.15;10.40;;;19.70;99.90;;;;;;5076075;28;20021;-85
2021/11/05 08:15:05;;;;;;;12.02;10.90;;;19.70;99.90;;;;;;5076898;28;20017;-85
2021/11/05 08:17:33;;;;;;;17.50;10.77;;;19.60;99.90;;;;;;5076676;28;20516;-84
2021/11/05 08:20:00;;;;;;;12.13;10.85;;;19.60;99.90;;;;;;5076575;28;20051;-83
2021/11/05 08:22:27;;;;;;;12.60;11.20;;;19.60;99.90;;;;;;5075480;28;20025;-85
2021/11/05 08:24:55;;;;;;;13.07;11.35;;;19.50;99.90;;;;;;5076050;28;20477;-84
2021/11/05 08:27:22;;;;;;;13.27;11.45;;;19.40;99.90;;;;;;5076732;28;20032;-85
2021/11/05 08:29:50;;;;;;;12.88;11.43;;;19.40;99.90;;;;;;5076138;28;20025;-84
2021/11/05 08:32:17;;;;;;;12.60;11.40;;;19.30;99.90;;;;;;5074732;28;20035;-82
2021/11/05 08:34:45;;;;;;;13.32;11.95;;;19.30;99.90;;;;;;5077609;28;20067;-84
2021/11/05 08:37:13;;;;;;;12.75;11.50;;;19.30;99.90;;;;;;5078223;28;20103;-84
2021/11/05 08:39:40;;;;;;;12.55;11.40;;;19.20;99.90;;;;;;5075262;28;20082;-82
2021/11/05 08:42:08;;;;;;;14.55;12.65;;;19.20;99.90;;;;;;5076086;28;20564;-83
2021/11/05 08:44:36;;;;;;;14.10;12.07;;;19.20;99.90;;;;;;5078079;28;20021;-86
2021/11/05 08:47:04;;;;;;;12.85;11.57;;;19.20;99.90;;;;;;5080562;28;20036;-84
2021/11/05 08:49:31;;;;;;;12.70;11.45;;;19.20;99.90;;;;;;5081638;28;20204;-84
2021/11/05 08:51:59;;;;;;;12.80;11.60;;;19.00;99.90;;;;;;5081785;28;20039;-86
2021/11/05 08:54:27;;;;;;;12.35;11.13;;;19.20;99.90;;;;;;5081368;28;20450;-85
2021/11/05 08:56:54;;;;;;;13.82;11.27;;;19.20;99.90;;;;;;5081059;28;20025;-84
2021/11/05 08:59:24;;;;;;;12.55;11.27;;;19.10;99.90;;;;;;5079968;28;20048;-82
2021/11/05 09:01:52;;;;;;;13.45;11.68;;;19.10;99.90;;;;;;5080810;28;20024;-85
2021/11/05 09:04:20;;;;;;;12.90;11.60;;;19.10;99.90;;;;;;5080753;28;20517;-85
2021/11/05 09:06:48;;;;;;;12.85;11.73;;;19.10;99.90;;;;;;5084141;28;20021;-85
2021/11/05 09:09:20;;;;;;;14.30;11.65;;;19.10;99.90;;;;;;5081029;28;20036;-81
2021/11/05 09:11:52;;;;;;;16.42;12.07;;;19.10;99.90;;;;;;5078477;28;20082;-85
2021/11/05 09:14:21;;;;;;;13.68;11.50;;;19.10;99.90;;;;;;5082376;28;20032;-84
2021/11/05 09:16:48;;;;;;;13.30;11.70;;;19.00;99.90;;;;;;5081769;28;20036;-85
2021/11/05 09:19:15;;;;;;;16.95;11.98;;;19.10;99.90;;;;;;5082372;28;20166;-85
2021/11/05 09:21:43;;;;;;;13.77;12.32;;;19.00;99.90;;;;;;5080944;28;20102;-84
2021/11/05 09:24:10;;;;;;;15.48;12.25;;;19.00;99.90;;;;;;5082733;28;20043;-86
2021/11/05 09:26:37;;;;;;;13.27;11.70;;;19.00;99.90;;;;;;5079712;28;20078;-82
2021/11/05 09:29:05;;;;;;;13.00;11.88;;;19.00;99.90;;;;;;5079939;28;20397;-85
2021/11/05 09:31:32;;;;;;;13.30;11.73;;;19.00;99.90;;;;;;5080279;28;20032;-84
2021/11/05 09:33:59;;;;;;;13.15;11.80;;;19.00;99.90;;;;;;5078029;28;20024;-83
2021/11/05 09:36:28;;;;;;;16.58;11.57;;;19.00;99.90;;;;;;5081637;28;20017;-84
2021/11/05 09:38:56;;;;;;;13.23;11.90;;;19.00;99.90;;;;;;5082835;28;20029;-84
2021/11/05 09:41:23;;;;;;;14.40;11.73;;;19.00;99.90;;;;;;5080061;28;20086;-84
2021/11/05 09:43:51;;;;;;;12.77;11.50;;;19.00;99.90;;;;;;5078201;28;20055;-84
2021/11/05 09:46:19;;;;;;;13.35;12.15;;;19.00;99.90;;;;;;5080857;28;20488;-84
2021/11/05 09:48:48;;;;;;;13.05;11.75;;;19.00;99.90;;;;;;5079627;28;20017;-82
2021/11/05 09:51:16;;;;;;;14.18;12.70;;;19.00;99.90;;;;;;5079364;28;20024;-84
2021/11/05 09:53:43;;;;;;;13.73;12.48;;;19.00;99.90;;;;;;5077542;28;20044;-85
2021/11/05 09:56:18;;;;;;;13.32;12.07;;;19.00;99.90;;;;;;5076022;28;20024;-81
2021/11/05 09:58:46;;;;;;;13.55;12.27;;;19.00;99.90;;;;;;5079014;28;20070;-81
2021/11/05 10:01:14;;;;;;;13.02;12.02;;;19.00;99.90;;;;;;5079452;28;20017;-84
2021/11/05 10:03:41;;;;;;;13.02;11.90;;;19.00;99.90;;;;;;5078948;28;20026;-82
2021/11/05 10:06:19;;;;;;;13.10;11.75;;;19.00;99.90;;;;;;5077371;28;20469;-79
2021/11/05 10:08:52;;;;;;;12.80;11.70;;;19.00;99.90;;;;;;5078194;28;20165;-85
2021/11/05 10:11:27;;;;;;;13.35;11.73;;;19.00;99.90;;;;;;5077937;28;20157;-82
2021/11/05 10:13:56;;;;;;;13.52;11.80;;;19.00;99.90;;;;;;5079140;28;20020;-84
2021/11/05 10:16:25;;;;;;;12.93;11.82;;;18.90;99.90;;;;;;5080745;28;20017;-85
2021/11/05 10:19:02;;;;;;;13.73;12.45;;;18.90;99.90;;;;;;5079718;28;20051;-85
2021/11/05 10:21:47;;;;;;;12.88;11.80;;;19.00;99.90;;;;;;5078972;28;20032;-84
2021/11/05 10:24:20;;;;;;;13.13;11.90;;;18.90;99.90;;;;;;5077619;28;20024;-84
2021/11/05 10:26:48;;;;;;;12.85;11.75;;;18.90;99.90;;;;;;5078532;28;20096;-83
2021/11/05 10:29:30;;;;;;;12.82;11.52;;;18.90;99.90;;;;;;5079814;28;20020;-85
2021/11/05 10:32:08;;;;;;;12.52;11.52;;;18.90;99.90;;;;;;5079688;28;20021;-85
2021/11/05 10:34:54;;;;;;;13.32;12.02;;;18.90;99.90;;;;;;5078044;28;20029;-84
2021/11/05 10:37:32;;;;;;;12.23;11.30;;;18.90;99.90;;;;;;5077714;28;20017;-85
2021/11/05 10:40:00;;;;;;;12.48;11.40;;;18.90;99.90;;;;;;5078384;28;20024;-82
2021/11/05 10:42:57;;;;;;;12.90;11.82;;;18.80;99.90;;;;;;5077439;28;20055;-81
2021/11/05 10:45:26;;;;;;;13.35;12.05;;;18.80;99.90;;;;;;5071783;28;20043;-83
2021/11/05 10:47:58;;;;;;;12.73;11.40;;;18.80;99.90;;;;;;5079895;28;20116;-86
2021/11/05 10:50:34;;;;;;;12.85;11.68;;;18.80;99.90;;;;;;5077901;28;20035;-84
2021/11/05 10:53:11;;;;;;;12.18;11.18;;;18.70;99.90;;;;;;5075932;28;20082;-83
2021/11/05 10:56:01;;;;;;;12.32;11.25;;;18.80;99.90;;;;;;5076023;28;20105;-84
2021/11/05 10:58:31;;;;;;;12.55;11.05;;;18.70;99.90;;;;;;5077275;28;20052;-83
2021/11/05 11:01:01;;;;;;;;;;;18.80;99.90;;;;;;5078257;28;20070;-82
2021/11/05 11:03:31;;;;;;;14.15;12.70;;;18.70;99.90;;;;;;5075235;28;19905;-80
2021/11/05 11:06:06;;;;;;;13.30;11.93;;;18.70;99.90;;;;;;5078284;28;20025;-85
2021/11/05 11:08:38;;;;;;;13.35;12.23;;;18.70;99.90;;;;;;5062723;28;20036;-85
2021/11/05 11:11:40;;;;;;;13.43;12.48;;;18.60;99.90;;;;;;5076082;28;20087;-84
2021/11/05 11:14:27;;;;;;;13.45;11.75;;;18.50;99.90;;;;;;5066180;28;20508;-82
2021/11/05 11:16:58;;;;;;;13.20;11.90;;;18.50;99.90;;;;;;5075850;28;20481;-86
2021/11/05 11:19:36;;;;;;;13.88;12.60;;;18.50;99.90;;;;;;5075560;28;20127;-85
2021/11/05 11:22:09;;;;;;;14.45;13.00;;;18.50;99.90;;;;;;5077485;28;20480;-83
2021/11/05 11:24:40;;;;;;;14.10;12.70;;;18.40;99.90;;;;;;5077011;28;20048;-84
2021/11/05 11:27:11;;;;;;;13.88;12.45;;;18.40;99.90;;;;;;5076753;28;20035;-84
2021/11/05 11:29:38;;;;;;;15.32;13.38;;;18.40;99.90;;;;;;5078509;28;20028;-84
2021/11/05 11:32:07;;;;;;;13.60;12.30;;;18.30;99.90;;;;;;5076124;28;20427;-86
2021/11/05 11:34:35;;;;;;;13.48;12.52;;;18.30;99.90;;;;;;5078839;28;20465;-86
2021/11/05 11:37:03;;;;;;;14.00;12.63;;;18.30;99.90;;;;;;5076546;28;20051;-87
2021/11/05 11:39:32;;;;;;;14.75;13.10;;;18.20;99.90;;;;;;5074889;28;20063;-83
2021/11/05 11:42:06;;;;;;;13.75;12.50;;;18.20;99.90;;;;;;5077250;28;20029;-85
2021/11/05 11:44:36;;;;;;;15.93;13.80;;;18.20;99.90;;;;;;5079834;28;20055;-86
2021/11/05 11:47:09;;;;;;;15.88;14.35;;;18.20;99.90;;;;;;5076832;28;20059;-85
2021/11/05 11:49:39;;;;;;;17.52;14.50;;;18.10;99.90;;;;;;5076959;28;20108;-85
2021/11/05 11:52:08;;;;;;;15.80;13.90;;;18.10;99.90;;;;;;5074399;28;20020;-82
2021/11/05 11:54:38;;;;;;;16.00;13.63;;;18.20;99.90;;;;;;5077662;28;20028;-84
2021/11/05 11:57:14;;;;;;;15.05;13.68;;;18.10;99.90;;;;;;5081386;28;20025;-81
2021/11/05 11:59:44;;;;;;;14.55;13.32;;;18.10;99.90;;;;;;5078211;28;20025;-82
2021/11/05 12:02:32;;;;;;;15.27;12.55;;;18.10;99.90;;;;;;5077405;28;20033;-85
2021/11/05 12:05:02;;;;;;;14.38;12.68;;;18.10;99.90;;;;;;5076074;28;20020;-85
2021/11/05 12:07:29;;;;;;;14.60;13.40;;;18.10;99.90;;;;;;5085307;28;20028;-83
2021/11/05 12:10:24;;;;;;;14.48;13.02;;;18.10;99.90;;;;;;5078220;28;20024;-84
2021/11/05 12:12:55;;;;;;;14.70;13.18;;;18.00;99.90;;;;;;5076864;28;20036;-82
2021/11/05 12:15:23;;;;;;;14.32;12.93;;;18.10;99.90;;;;;;5075725;28;20016;-84
2021/11/05 12:17:50;;;;;;;14.60;13.15;;;18.00;99.90;;;;;;5075358;28;20625;-84
2021/11/05 12:20:29;;;;;;;19.23;14.20;;;18.10;99.90;;;;;;5077742;28;20017;-82
2021/11/05 12:23:11;;;;;;;14.95;13.45;;;18.10;99.90;;;;;;5078845;28;20025;-84
2021/11/05 12:26:02;;;;;;;16.45;13.80;;;18.00;99.90;;;;;;5077811;28;20044;-82
2021/11/05 12:28:31;;;;;;;14.32;12.65;;;18.00;99.90;;;;;;5083828;28;20024;-81
2021/11/05 12:31:26;;;;;;;14.52;13.25;;;18.00;99.90;;;;;;5080870;28;20029;-84
2021/11/05 12:33:55;;;;;;;13.73;12.73;;;17.90;99.90;;;;;;5079540;28;20032;-80
2021/11/05 12:36:48;;;;;;;13.15;11.85;;;17.90;99.90;;;;;;5086029;28;20020;-85
2021/11/05 12:39:30;;;;;;;13.18;11.85;;;17.90;99.90;;;;;;5076637;28;20021;-81
2021/11/05 12:41:59;;;;;;;13.10;11.90;;;17.90;99.90;;;;;;5085956;28;20478;-85
2021/11/05 12:44:28;;;;;;;14.05;12.20;;;17.90;99.90;;;;;;5082418;28;20024;-85
2021/11/05 12:46:56;;;;;;;13.70;12.30;;;17.80;99.90;;;;;;5081356;28;20025;-84
2021/11/05 12:49:24;;;;;;;13.75;12.68;;;17.70;99.90;;;;;;5079487;28;20033;-84